Time;durP1;ratioP1;P1;durP2;ratioP2;P2;SDS_P1;SDS_P2;PMS_P1;PMS_P2;Temp;Humidity;BMP_temperature;BMP_pressure;BME280_temperature;BME280_humidity;BME280_pressure;Samples;Min_cycle;Max_cycle;Signal;HPM_P1;HPM_P2
2023/01/21 00:01:08;;;;;;;34.00;21.83;;;2.20;99.90;;;;;;4908834;29;20496;-73
2023/01/21 00:03:33;;;;;;;35.97;20.67;;;2.20;99.90;;;;;;4907601;29;20443;-73
2023/01/21 00:05:59;;;;;;;40.23;23.20;;;2.10;99.90;;;;;;4905685;29;20268;-73
2023/01/21 00:08:25;;;;;;;35.37;22.80;;;2.10;99.90;;;;;;4904384;29;20220;-73
2023/01/21 00:10:51;;;;;;;36.83;21.60;;;2.00;99.90;;;;;;4902492;29;20195;-73
2023/01/21 00:13:16;;;;;;;34.73;22.53;;;2.00;99.90;;;;;;4900647;29;20993;-73
2023/01/21 00:15:42;;;;;;;34.60;20.53;;;2.00;99.90;;;;;;4914343;29;20554;-73
2023/01/21 00:18:08;;;;;;;39.40;23.00;;;2.00;99.90;;;;;;4901950;29;20193;-73
2023/01/21 00:20:34;;;;;;;44.07;23.97;;;2.00;99.90;;;;;;4903705;29;20185;-73
2023/01/21 00:22:59;;;;;;;42.73;25.00;;;2.00;99.90;;;;;;4904760;29;20185;-73
2023/01/21 00:25:25;;;;;;;41.30;23.33;;;1.90;99.90;;;;;;4906958;29;20323;-73
2023/01/21 00:27:50;;;;;;;40.50;23.73;;;2.00;99.90;;;;;;4908486;29;20595;-73
2023/01/21 00:30:16;;;;;;;45.57;25.10;;;2.00;99.90;;;;;;4909986;29;20199;-74
2023/01/21 00:32:41;;;;;;;41.60;23.33;;;1.90;99.90;;;;;;4911549;29;20231;-74
2023/01/21 00:35:07;;;;;;;37.47;21.10;;;1.90;99.90;;;;;;4913175;29;20193;-74
2023/01/21 00:37:33;;;;;;;42.07;22.90;;;2.00;99.90;;;;;;4898279;29;20188;-74
2023/01/21 00:39:59;;;;;;;42.17;21.83;;;2.00;99.90;;;;;;4900358;29;20180;-74
2023/01/21 00:42:26;;;;;;;40.53;21.90;;;2.00;99.90;;;;;;4899646;29;20514;-74
2023/01/21 00:44:52;;;;;;;43.30;22.67;;;2.10;99.90;;;;;;4901091;29;20221;-74
2023/01/21 00:47:18;;;;;;;36.23;22.03;;;2.00;99.90;;;;;;4902546;29;20522;-74
2023/01/21 00:49:43;;;;;;;36.63;21.13;;;2.10;99.90;;;;;;4904327;29;20190;-74
2023/01/21 00:52:09;;;;;;;35.50;21.10;;;2.10;99.90;;;;;;4906137;29;20188;-74
2023/01/21 00:54:34;;;;;;;41.17;22.77;;;2.10;99.90;;;;;;4907562;29;20195;-73
2023/01/21 00:57:00;;;;;;;48.07;23.17;;;2.00;99.90;;;;;;4909336;29;20275;-73
2023/01/21 00:59:28;;;;;;;37.77;21.70;;;2.00;99.90;;;;;;4910952;29;20191;-73
2023/01/21 01:01:54;;;;;;;41.30;22.93;;;2.00;99.90;;;;;;4908909;29;20223;-74
2023/01/21 01:04:21;;;;;;;40.57;22.17;;;2.00;99.90;;;;;;4914200;29;20540;-73
2023/01/21 01:06:47;;;;;;;42.53;24.23;;;2.10;99.90;;;;;;4915930;29;20451;-73
2023/01/21 01:09:13;;;;;;;38.13;21.40;;;2.20;99.90;;;;;;4917038;29;20508;-73
2023/01/21 01:11:38;;;;;;;40.27;21.43;;;2.10;99.90;;;;;;4915864;29;20184;-73
2023/01/21 01:14:04;;;;;;;38.33;23.33;;;2.10;99.90;;;;;;4914262;29;20186;-73
2023/01/21 01:16:30;;;;;;;36.97;22.57;;;2.00;99.90;;;;;;4912592;29;20471;-74
2023/01/21 01:18:56;;;;;;;40.60;22.07;;;2.00;99.90;;;;;;4908125;29;20249;-74
2023/01/21 01:21:21;;;;;;;38.43;21.60;;;2.00;99.90;;;;;;4907638;29;20549;-73
2023/01/21 01:23:50;;;;;;;41.03;21.57;;;2.00;99.90;;;;;;4908909;29;20193;-73
2023/01/21 01:26:18;;;;;;;41.67;21.83;;;2.00;99.90;;;;;;4910059;29;20254;-73
2023/01/21 01:28:44;;;;;;;35.50;21.93;;;2.00;99.90;;;;;;4911708;29;20428;-73
2023/01/21 01:31:12;;;;;;;37.90;21.17;;;2.00;99.90;;;;;;4896521;29;20579;-73
2023/01/21 01:33:37;;;;;;;39.17;21.80;;;1.90;99.90;;;;;;4897608;29;21032;-73
2023/01/21 01:36:10;;;;;;;41.97;23.30;;;2.00;99.90;;;;;;4915951;29;20534;-73
2023/01/21 01:38:36;;;;;;;39.23;23.00;;;2.00;99.90;;;;;;4902162;29;20187;-76
2023/01/21 01:41:03;;;;;;;38.87;24.83;;;1.90;99.90;;;;;;4901039;29;20440;-86
2023/01/21 01:43:59;;;;;;;40.33;20.77;;;1.90;99.90;;;;;;4906487;29;20316;-85
2023/01/21 01:46:31;;;;;;;38.80;20.33;;;1.90;99.90;;;;;;4843612;29;20477;-86
2023/01/21 01:48:59;;;;;;;50.87;22.90;;;1.90;99.90;;;;;;4909901;29;20443;-89
2023/01/21 01:51:42;;;;;;;38.70;22.87;;;1.90;99.90;;;;;;4907706;29;21012;-78
2023/01/21 01:54:10;;;;;;;40.60;22.23;;;2.00;99.90;;;;;;4903758;29;20924;-79
2023/01/21 01:56:37;;;;;;;44.10;24.97;;;1.90;99.90;;;;;;4901909;29;21042;-79
2023/01/21 01:59:03;;;;;;;39.83;22.20;;;1.90;99.90;;;;;;4899939;29;20933;-80
2023/01/21 02:01:29;;;;;;;38.80;21.47;;;1.90;99.90;;;;;;4902039;29;20455;-81
2023/01/21 02:03:58;;;;;;;40.33;23.53;;;1.90;99.90;;;;;;4906920;29;20548;-81
2023/01/21 02:06:25;;;;;;;43.33;24.03;;;1.90;99.90;;;;;;4915130;29;20572;-83
2023/01/21 02:08:50;;;;;;;43.10;25.10;;;1.90;99.90;;;;;;4913484;29;20449;-83
2023/01/21 02:11:18;;;;;;;39.97;21.97;;;2.00;99.90;;;;;;4894655;29;20467;-82
2023/01/21 02:13:52;;;;;;;40.70;20.83;;;1.90;99.90;;;;;;4909859;29;20830;-81
2023/01/21 02:16:31;;;;;;;38.40;23.13;;;1.90;99.90;;;;;;4905588;29;21011;-82
2023/01/21 02:19:06;;;;;;;39.43;23.37;;;1.90;99.90;;;;;;4906321;29;20650;-83
2023/01/21 02:22:09;;;;;;;43.10;25.90;;;1.90;99.90;;;;;;4907630;29;20444;-83
2023/01/21 05:31:16;;;;;;;43.97;22.93;;;0.90;99.90;;;;;;5520329;23;21056;-78
2023/01/21 05:33:44;;;;;;;44.87;24.47;;;0.90;99.90;;;;;;4904305;29;20527;-79
2023/01/21 05:36:12;;;;;;;41.70;24.23;;;0.90;99.90;;;;;;4910227;29;20184;-79
2023/01/21 05:38:38;;;;;;;43.67;24.23;;;0.90;99.90;;;;;;4914522;29;20911;-78
2023/01/21 05:41:04;;;;;;;45.50;24.77;;;0.90;99.90;;;;;;4900104;29;20452;-83
2023/01/21 05:43:30;;;;;;;42.00;23.97;;;1.00;99.90;;;;;;4898635;29;20444;-80
2023/01/21 05:45:56;;;;;;;41.47;24.43;;;1.00;99.90;;;;;;4900385;29;20491;-82
2023/01/21 05:48:22;;;;;;;43.90;24.20;;;1.00;99.90;;;;;;4903774;29;20192;-80
2023/01/21 05:50:48;;;;;;;43.13;25.10;;;0.90;99.90;;;;;;4909571;29;20189;-79
2023/01/21 05:53:14;;;;;;;43.33;23.80;;;0.90;99.90;;;;;;4905597;29;20890;-83
2023/01/21 05:55:40;;;;;;;43.17;23.80;;;0.80;99.90;;;;;;4907899;29;20468;-86
2023/01/21 05:58:06;;;;;;;41.87;22.33;;;0.80;99.90;;;;;;4906091;29;20451;-77
2023/01/21 06:00:31;;;;;;;38.57;22.73;;;0.90;99.90;;;;;;4910301;29;20200;-79
2023/01/21 06:03:01;;;;;;;37.37;24.53;;;0.90;99.90;;;;;;4912007;29;20195;-80
2023/01/21 06:05:27;;;;;;;42.37;22.20;;;0.80;99.90;;;;;;4913667;29;20250;-81
2023/01/21 06:07:53;;;;;;;38.40;24.07;;;0.80;99.90;;;;;;4916215;29;20470;-81
2023/01/21 06:10:19;;;;;;;44.27;22.60;;;0.70;99.90;;;;;;4899727;29;20866;-81
2023/01/21 06:12:45;;;;;;;44.53;23.80;;;0.70;99.90;;;;;;4915244;29;20541;-81
2023/01/21 06:15:12;;;;;;;36.37;22.20;;;0.70;99.90;;;;;;4912989;29;20455;-81
2023/01/21 06:17:39;;;;;;;46.47;23.80;;;0.70;99.90;;;;;;4911357;29;20442;-81
2023/01/21 06:20:06;;;;;;;38.20;23.10;;;0.70;99.90;;;;;;4909178;29;20434;-82
2023/01/21 06:22:31;;;;;;;38.37;23.53;;;0.60;99.90;;;;;;4907941;29;20440;-81
2023/01/21 06:24:57;;;;;;;34.07;21.10;;;0.60;99.90;;;;;;4906865;29;20471;-79
2023/01/21 06:27:23;;;;;;;40.53;22.77;;;0.60;99.90;;;;;;4910121;29;20193;-79
2023/01/21 06:29:49;;;;;;;40.83;21.57;;;0.60;99.90;;;;;;4898477;29;20606;-84
2023/01/21 06:32:14;;;;;;;41.50;22.00;;;0.60;99.90;;;;;;4901027;29;20516;-82
2023/01/21 06:34:40;;;;;;;39.50;22.40;;;0.60;99.90;;;;;;4899330;29;20195;-82
2023/01/21 06:37:05;;;;;;;33.70;21.97;;;0.60;99.90;;;;;;4898625;29;20234;-82
2023/01/21 06:39:31;;;;;;;37.57;22.23;;;0.60;99.90;;;;;;4898059;29;20553;-81
2023/01/21 06:41:57;;;;;;;39.27;22.37;;;0.70;99.90;;;;;;4899857;29;20194;-75
2023/01/21 06:44:22;;;;;;;38.20;21.90;;;0.70;99.90;;;;;;4901358;29;20191;-75
2023/01/21 06:46:48;;;;;;;32.40;21.27;;;0.70;99.90;;;;;;4902940;29;20240;-75
2023/01/21 06:49:13;;;;;;;37.73;23.60;;;0.70;99.90;;;;;;4904630;29;20199;-75
2023/01/21 06:51:39;;;;;;;48.17;26.30;;;0.80;99.90;;;;;;4906532;29;20212;-74
2023/01/21 06:54:04;;;;;;;40.53;23.20;;;0.80;99.90;;;;;;4908052;29;20271;-76
2023/01/21 06:56:30;;;;;;;40.50;22.87;;;0.90;99.90;;;;;;4909977;29;20195;-74
2023/01/21 06:58:56;;;;;;;40.60;24.60;;;0.90;99.90;;;;;;4911617;29;20191;-74
2023/01/21 07:01:21;;;;;;;48.90;26.70;;;0.90;99.90;;;;;;4912957;29;20190;-76
2023/01/21 07:03:47;;;;;;;38.47;23.80;;;1.00;99.90;;;;;;4909095;29;20233;-75
2023/01/21 07:06:12;;;;;;;42.43;25.73;;;1.10;99.90;;;;;;4897471;29;20318;-78
2023/01/21 07:08:38;;;;;;;44.67;27.40;;;1.10;99.90;;;;;;4903888;29;20251;-75
2023/01/21 07:11:03;;;;;;;45.10;24.60;;;1.20;99.90;;;;;;4910771;29;20555;-74
2023/01/21 07:13:29;;;;;;;41.87;26.57;;;1.30;99.90;;;;;;4903993;29;20541;-76
2023/01/21 07:16:01;;;;;;;40.40;22.33;;;1.30;99.90;;;;;;4903944;29;20651;-77
2023/01/21 07:18:27;;;;;;;50.53;27.00;;;1.50;99.90;;;;;;4905853;29;20186;-75
2023/01/21 07:20:53;;;;;;;44.37;24.67;;;1.50;99.90;;;;;;4907368;29;20426;-75
2023/01/21 07:23:18;;;;;;;35.27;22.90;;;1.60;99.90;;;;;;4908773;29;20667;-77
2023/01/21 07:25:45;;;;;;;43.33;23.80;;;1.60;99.90;;;;;;4911192;29;20275;-77
2023/01/21 07:28:10;;;;;;;43.37;25.97;;;1.60;99.90;;;;;;4899713;29;20281;-76
2023/01/21 07:30:36;;;;;;;44.43;22.67;;;1.60;99.90;;;;;;4897976;29;20522;-75
2023/01/21 07:33:08;;;;;;;38.67;22.43;;;1.70;99.90;;;;;;4899359;29;20198;-76
2023/01/21 07:35:34;;;;;;;42.60;25.40;;;1.70;99.90;;;;;;4902986;29;20200;-76
2023/01/21 07:38:00;;;;;;;41.80;24.47;;;1.70;99.90;;;;;;4904596;29;20538;-76
2023/01/21 07:40:25;;;;;;;36.97;22.80;;;1.70;99.90;;;;;;4906245;29;20690;-77
2023/01/21 07:42:54;;;;;;;41.90;24.00;;;1.80;99.90;;;;;;4907798;29;20187;-76
2023/01/21 07:45:24;;;;;;;43.07;23.80;;;1.80;99.90;;;;;;4911183;29;20266;-76
2023/01/21 07:47:49;;;;;;;36.67;22.80;;;1.80;99.90;;;;;;4908099;29;20774;-77
2023/01/21 07:50:15;;;;;;;39.47;24.07;;;1.80;99.90;;;;;;4906320;29;20474;-77
2023/01/21 07:52:40;;;;;;;38.03;22.93;;;1.80;99.90;;;;;;4904606;29;20539;-77
2023/01/21 07:55:07;;;;;;;39.30;24.10;;;1.80;99.90;;;;;;4902892;29;20211;-77
2023/01/21 07:57:32;;;;;;;43.03;22.70;;;1.80;99.90;;;;;;4906672;29;20619;-79
2023/01/21 07:59:58;;;;;;;50.23;26.40;;;1.80;99.90;;;;;;4918242;29;20528;-79
2023/01/21 08:02:23;;;;;;;35.73;24.40;;;1.90;99.90;;;;;;4902636;29;20201;-82
2023/01/21 08:04:49;;;;;;;39.97;21.77;;;1.80;99.90;;;;;;4904156;29;20243;-83
2023/01/21 08:07:15;;;;;;;36.80;21.37;;;1.90;99.90;;;;;;4905416;29;20546;-83
2023/01/21 08:09:40;;;;;;;41.70;23.63;;;2.00;99.90;;;;;;4911298;29;20269;-78
2023/01/21 08:12:07;;;;;;;40.77;22.47;;;1.90;99.90;;;;;;4909724;29;20193;-81
2023/01/21 08:14:33;;;;;;;39.87;23.93;;;2.00;99.90;;;;;;4908898;29;20187;-80
2023/01/21 08:16:59;;;;;;;31.90;20.13;;;2.00;99.90;;;;;;4912618;29;20844;-81
2023/01/21 08:19:25;;;;;;;42.20;24.97;;;2.00;99.90;;;;;;4906845;29;20445;-83
2023/01/21 08:21:51;;;;;;;37.70;21.83;;;2.00;99.90;;;;;;4905721;29;20180;-82
2023/01/21 08:24:17;;;;;;;42.03;22.73;;;2.10;99.90;;;;;;4915120;29;20453;-82
2023/01/21 08:26:42;;;;;;;31.60;20.80;;;2.10;99.90;;;;;;4914688;29;20188;-81
2023/01/21 08:29:08;;;;;;;35.73;21.33;;;2.10;99.90;;;;;;4917428;29;20195;-80
2023/01/21 08:31:33;;;;;;;35.17;21.20;;;2.20;99.90;;;;;;4914847;29;20227;-80
2023/01/21 08:33:59;;;;;;;39.57;21.20;;;2.20;99.90;;;;;;4913099;29;20525;-76
2023/01/21 08:36:25;;;;;;;37.60;22.20;;;2.20;99.90;;;;;;4910199;29;20186;-79
2023/01/21 08:38:54;;;;;;;40.43;23.00;;;2.20;99.90;;;;;;4908915;29;20198;-79
2023/01/21 08:41:20;;;;;;;34.73;20.47;;;2.20;99.90;;;;;;4909518;29;20762;-78
2023/01/21 08:43:46;;;;;;;36.03;22.03;;;2.20;99.90;;;;;;4908456;29;20434;-80
2023/01/21 08:46:12;;;;;;;36.10;22.33;;;2.20;99.90;;;;;;4906591;29;20207;-79
2023/01/21 08:48:38;;;;;;;41.53;23.67;;;2.30;99.90;;;;;;4913656;29;20193;-75
2023/01/21 08:51:04;;;;;;;35.47;20.80;;;2.30;99.90;;;;;;4914982;29;20524;-77
2023/01/21 08:53:31;;;;;;;36.40;22.10;;;2.30;99.90;;;;;;4899614;29;20185;-87
2023/01/21 08:56:01;;;;;;;40.73;25.10;;;2.40;99.90;;;;;;4899565;29;20529;-74
2023/01/21 08:58:28;;;;;;;44.87;24.03;;;2.40;99.90;;;;;;4901119;29;20432;-74
2023/01/21 09:00:54;;;;;;;37.67;21.90;;;2.40;99.90;;;;;;4902687;29;20529;-75
2023/01/21 09:03:19;;;;;;;42.20;22.47;;;2.40;99.90;;;;;;4904518;29;20461;-74
2023/01/21 09:05:46;;;;;;;45.53;24.00;;;2.50;99.90;;;;;;4905921;29;20937;-75
2023/01/21 09:08:11;;;;;;;43.80;24.70;;;2.50;99.90;;;;;;4907737;29;20566;-75
2023/01/21 09:13:21;;;;;;;38.57;21.10;;;2.50;99.90;;;;;;4911838;29;20190;-80
2023/01/21 09:15:47;;;;;;;38.93;21.60;;;2.50;99.90;;;;;;4895861;29;20831;-78
2023/01/21 09:18:12;;;;;;;40.43;24.80;;;2.50;99.90;;;;;;4914711;29;20270;-78
2023/01/21 09:20:38;;;;;;;39.07;23.77;;;2.60;99.90;;;;;;4916915;29;20196;-77
2023/01/21 09:23:22;;;;;;;41.70;23.90;;;2.70;99.90;;;;;;4902279;29;20254;-76
2023/01/21 09:26:02;;;;;;;44.80;23.73;;;2.70;99.90;;;;;;4901636;29;20492;-77
2023/01/21 09:28:28;;;;;;;42.20;25.90;;;2.80;99.90;;;;;;4903388;29;20535;-80
2023/01/21 09:31:02;;;;;;;42.97;24.20;;;2.80;99.90;;;;;;4905045;29;20479;-79
2023/01/21 09:33:30;;;;;;;47.87;25.73;;;2.80;99.90;;;;;;4908626;29;20549;-77
2023/01/21 09:35:58;;;;;;;53.23;25.37;;;2.90;99.90;;;;;;4906831;29;20449;-77
2023/01/21 09:38:25;;;;;;;44.63;25.40;;;2.90;99.90;;;;;;4905308;29;20479;-78
2023/01/21 09:40:51;;;;;;;44.70;27.43;;;3.00;99.90;;;;;;4903268;29;20446;-77
2023/01/21 09:43:23;;;;;;;41.73;24.33;;;3.10;99.90;;;;;;4901878;29;20444;-80
2023/01/21 09:45:52;;;;;;;50.77;26.63;;;3.00;99.90;;;;;;4899689;29;20494;-77
2023/01/21 09:48:34;;;;;;;45.63;23.83;;;3.00;99.90;;;;;;4898212;29;20432;-78
2023/01/21 09:51:05;;;;;;;45.67;27.53;;;3.00;99.90;;;;;;4899526;29;20435;-76
2023/01/21 09:53:40;;;;;;;46.07;27.67;;;3.00;99.90;;;;;;4909805;29;20438;-76
2023/01/21 09:56:18;;;;;;;45.00;24.73;;;3.10;99.90;;;;;;4911931;29;20470;-75
2023/01/21 09:58:59;;;;;;;42.17;23.70;;;3.10;99.90;;;;;;4915345;29;20938;-79
2023/01/21 10:01:32;;;;;;;38.93;23.67;;;3.20;99.90;;;;;;4908032;29;20780;-80
2023/01/21 10:04:19;;;;;;;36.93;22.60;;;3.30;99.90;;;;;;4904913;29;20495;-76
2023/01/21 10:06:56;;;;;;;44.10;21.30;;;3.30;99.90;;;;;;4903430;29;20542;-78
2023/01/21 10:09:41;;;;;;;42.80;23.90;;;3.40;99.90;;;;;;4901539;29;20447;-76
2023/01/21 10:12:29;;;;;;;34.30;19.30;;;3.40;99.90;;;;;;4908814;29;20435;-77
2023/01/21 10:15:14;;;;;;;42.73;21.50;;;3.40;99.90;;;;;;4908449;29;20457;-76
2023/01/21 10:18:06;;;;;;;40.40;22.33;;;3.40;99.90;;;;;;4905574;29;20924;-76
2023/01/21 10:20:42;;;;;;;38.50;22.97;;;3.40;99.90;;;;;;4894960;29;20469;-76
2023/01/21 10:23:21;;;;;;;35.67;21.27;;;3.50;99.90;;;;;;4901702;29;20495;-77
2023/01/21 10:25:48;;;;;;;40.17;22.60;;;3.40;99.90;;;;;;4908449;29;20882;-77
2023/01/21 10:28:23;;;;;;;42.70;23.30;;;3.40;99.90;;;;;;4906529;29;20441;-77
2023/01/21 10:30:58;;;;;;;38.67;21.73;;;3.40;99.90;;;;;;4906985;29;20931;-76
2023/01/21 10:33:26;;;;;;;43.87;24.47;;;3.50;99.90;;;;;;4906908;29;20470;-75
2023/01/21 10:36:01;;;;;;;36.13;21.53;;;3.60;99.90;;;;;;4909963;29;20541;-75
2023/01/21 10:38:38;;;;;;;43.30;24.27;;;3.60;99.90;;;;;;4905031;29;20470;-76
2023/01/21 10:41:25;;;;;;;44.23;22.53;;;3.70;99.90;;;;;;4897775;29;20451;-77
2023/01/21 10:43:56;;;;;;;44.30;23.90;;;3.70;99.90;;;;;;4903444;29;20840;-76
2023/01/21 10:46:58;;;;;;;41.40;25.33;;;3.80;99.90;;;;;;4912968;29;20506;-76
2023/01/21 10:50:01;;;;;;;43.53;22.67;;;3.80;99.90;;;;;;4900397;29;20452;-75
2023/01/21 10:52:51;;;;;;;40.07;20.43;;;3.80;99.90;;;;;;4908358;29;20430;-75
2023/01/21 10:55:59;;;;;;;43.20;22.40;;;3.80;99.90;;;;;;4906135;29;20444;-73
2023/01/21 10:58:34;;;;;;;37.73;20.10;;;3.90;99.90;;;;;;4906045;29;20437;-75
2023/01/21 11:01:04;;;;;;;36.70;19.83;;;3.90;99.90;;;;;;4903425;29;20825;-75
2023/01/21 11:03:47;;;;;;;40.77;21.73;;;3.90;99.90;;;;;;4909612;29;20440;-75
2023/01/21 11:06:15;;;;;;;43.00;23.07;;;4.00;99.90;;;;;;4912349;29;20818;-74
2023/01/21 11:08:45;;;;;;;36.03;20.60;;;4.00;99.90;;;;;;4913295;29;20939;-74
2023/01/21 11:11:11;;;;;;;36.40;19.90;;;4.10;99.90;;;;;;4900424;29;20531;-75
2023/01/21 11:13:40;;;;;;;31.87;20.27;;;4.10;99.90;;;;;;4902039;29;20442;-75
2023/01/21 11:16:05;;;;;;;40.27;22.03;;;4.10;99.90;;;;;;4905837;29;20443;-75
2023/01/21 11:18:36;;;;;;;37.57;19.67;;;4.10;99.90;;;;;;4914274;29;20445;-75
2023/01/21 11:21:16;;;;;;;38.00;21.53;;;4.10;99.90;;;;;;4911114;29;20237;-74
2023/01/21 11:23:50;;;;;;;45.60;21.53;;;4.10;99.90;;;;;;4909107;29;20492;-73
2023/01/21 11:26:22;;;;;;;38.83;20.87;;;4.10;99.90;;;;;;4907624;29;20838;-74
2023/01/21 11:28:48;;;;;;;40.40;21.43;;;4.10;99.90;;;;;;4905678;29;20493;-72
2023/01/21 11:31:25;;;;;;;45.23;22.47;;;4.10;99.90;;;;;;4910057;29;20511;-73
2023/01/21 11:33:52;;;;;;;37.63;21.73;;;4.10;99.90;;;;;;4913678;29;20440;-73
2023/01/21 11:36:20;;;;;;;43.97;23.50;;;4.10;99.90;;;;;;4911744;29;20526;-74
2023/01/21 11:38:59;;;;;;;45.20;23.30;;;4.10;99.90;;;;;;4910879;29;20474;-72
2023/01/21 11:41:24;;;;;;;40.27;21.90;;;4.20;99.90;;;;;;4912918;29;20441;-72
2023/01/21 11:44:06;;;;;;;42.70;22.07;;;4.30;99.90;;;;;;4915132;29;20429;-74
2023/01/21 11:46:37;;;;;;;39.07;20.20;;;4.30;99.90;;;;;;4914285;29;20223;-74
2023/01/21 11:49:05;;;;;;;40.33;22.57;;;4.20;99.90;;;;;;4916633;29;20442;-74
2023/01/21 11:51:31;;;;;;;43.57;21.33;;;4.20;99.90;;;;;;4916158;29;20487;-73
2023/01/21 11:54:06;;;;;;;42.93;22.50;;;4.30;99.90;;;;;;4916870;29;20436;-74
2023/01/21 11:56:31;;;;;;;44.20;23.10;;;4.30;99.90;;;;;;4915524;29;20431;-74
2023/01/21 11:58:57;;;;;;;48.87;23.53;;;4.20;99.90;;;;;;4915037;29;20440;-74
2023/01/21 12:01:24;;;;;;;44.00;22.00;;;4.20;99.90;;;;;;4911705;29;20184;-74
2023/01/21 12:03:59;;;;;;;47.70;23.83;;;4.20;99.90;;;;;;4910120;29;20259;-74
2023/01/21 12:06:29;;;;;;;45.57;23.13;;;4.20;99.90;;;;;;4912764;29;20475;-75
2023/01/21 12:08:59;;;;;;;43.00;23.47;;;4.20;99.90;;;;;;4898887;29;20768;-76
2023/01/21 12:11:27;;;;;;;38.90;20.90;;;4.20;99.90;;;;;;4915059;29;20443;-75
2023/01/21 12:14:01;;;;;;;42.37;21.90;;;4.20;99.90;;;;;;4915146;29;20527;-75
2023/01/21 12:17:02;;;;;;;41.33;22.90;;;4.20;99.90;;;;;;4914724;29;20463;-75
2023/01/21 12:19:38;;;;;;;41.10;23.93;;;4.20;99.90;;;;;;4915205;29;20428;-76
2023/01/21 12:22:22;;;;;;;41.30;23.30;;;4.20;99.90;;;;;;4915262;29;20898;-75
2023/01/21 12:24:56;;;;;;;40.97;20.60;;;4.20;99.90;;;;;;4913281;29;20518;-74
2023/01/21 12:28:03;;;;;;;41.67;20.80;;;4.10;99.90;;;;;;4912678;29;20459;-75
2023/01/21 12:31:06;;;;;;;36.90;21.00;;;4.10;99.90;;;;;;4875455;29;20444;-74
2023/01/21 12:33:36;;;;;;;46.70;23.50;;;4.10;99.90;;;;;;4908130;29;20452;-75
2023/01/21 12:36:18;;;;;;;43.07;21.70;;;4.10;99.90;;;;;;4908781;29;20460;-72
2023/01/21 12:38:51;;;;;;;38.10;21.50;;;4.10;99.90;;;;;;4912805;29;20454;-73
2023/01/21 12:41:29;;;;;;;40.10;20.30;;;4.10;99.90;;;;;;4915000;29;20435;-74
2023/01/21 12:44:15;;;;;;;41.03;21.10;;;4.10;99.90;;;;;;4913998;29;20443;-72
2023/01/21 12:46:46;;;;;;;35.03;19.07;;;4.20;99.90;;;;;;4914740;29;20492;-73
2023/01/21 12:49:26;;;;;;;33.03;19.03;;;4.20;99.90;;;;;;4915955;29;20431;-73
2023/01/21 12:51:58;;;;;;;43.27;20.27;;;4.20;99.90;;;;;;4909780;29;20956;-87
2023/01/21 12:54:44;;;;;;;42.93;20.17;;;4.20;99.90;;;;;;4912783;29;20869;-72
2023/01/21 12:57:26;;;;;;;44.70;21.00;;;4.20;99.90;;;;;;4908898;29;20507;-72
2023/01/21 13:00:01;;;;;;;39.47;20.23;;;4.30;99.90;;;;;;4909539;29;20946;-72
2023/01/21 13:02:27;;;;;;;33.53;19.50;;;4.20;99.90;;;;;;4908913;29;20439;-73
2023/01/21 13:05:08;;;;;;;40.60;22.40;;;4.20;99.90;;;;;;4901828;29;20470;-73
2023/01/21 13:07:46;;;;;;;37.90;21.10;;;4.30;99.90;;;;;;4911726;29;20188;-72
2023/01/21 13:10:22;;;;;;;34.93;19.67;;;4.30;99.90;;;;;;4905669;29;20829;-72
2023/01/21 13:13:18;;;;;;;44.23;19.83;;;4.30;99.90;;;;;;4907600;29;20436;-72
2023/01/21 13:15:51;;;;;;;36.53;21.00;;;4.30;99.90;;;;;;4905933;29;20443;-72
2023/01/21 13:18:30;;;;;;;43.20;20.50;;;4.30;99.90;;;;;;4904460;29;20494;-72
2023/01/21 13:21:05;;;;;;;37.93;23.17;;;4.40;99.90;;;;;;4902330;29;20428;-73
2023/01/21 13:23:49;;;;;;;40.10;21.60;;;4.30;99.90;;;;;;4906218;29;20430;-73
2023/01/21 13:26:23;;;;;;;44.43;21.07;;;4.20;99.90;;;;;;4908354;29;20496;-72
2023/01/21 13:29:06;;;;;;;36.93;21.37;;;4.20;99.90;;;;;;4908793;29;20946;-73
2023/01/21 13:31:45;;;;;;;35.67;18.93;;;4.20;99.90;;;;;;4909304;29;20550;-72
2023/01/21 13:34:18;;;;;;;33.40;19.63;;;4.20;99.90;;;;;;4911280;29;20429;-72
2023/01/21 13:37:16;;;;;;;32.63;19.17;;;4.20;99.90;;;;;;4914167;29;20431;-73
2023/01/21 13:40:07;;;;;;;35.40;18.00;;;4.20;99.90;;;;;;4907881;29;20428;-72
2023/01/21 13:42:56;;;;;;;34.13;18.70;;;4.20;99.90;;;;;;4907671;29;20445;-73
2023/01/21 13:45:44;;;;;;;35.17;17.77;;;4.20;99.90;;;;;;4904488;29;20475;-72
2023/01/21 13:48:27;;;;;;;29.87;18.37;;;4.30;99.90;;;;;;4902579;29;20428;-72
2023/01/21 13:51:34;;;;;;;34.10;18.20;;;4.30;99.90;;;;;;4900478;29;20448;-72
2023/01/21 13:54:15;;;;;;;35.63;19.37;;;4.30;99.90;;;;;;4898301;29;20589;-72
2023/01/21 13:57:18;;;;;;;36.93;19.00;;;4.20;99.90;;;;;;4899344;29;20503;-71
2023/01/21 13:59:50;;;;;;;34.90;17.70;;;4.10;99.90;;;;;;4901564;29;20491;-72
2023/01/21 14:02:28;;;;;;;33.27;17.10;;;4.30;99.90;;;;;;4903295;29;20511;-78
2023/01/21 14:05:01;;;;;;;32.87;17.03;;;4.30;99.90;;;;;;4904676;29;20471;-72
2023/01/21 14:07:34;;;;;;;44.20;19.97;;;4.20;99.90;;;;;;4906773;29;20806;-73
2023/01/21 14:10:17;;;;;;;35.63;18.80;;;4.20;99.90;;;;;;4904951;29;20787;-72
2023/01/21 14:13:09;;;;;;;29.80;17.50;;;4.20;99.90;;;;;;4909980;29;20521;-72
2023/01/21 14:16:04;;;;;;;34.40;18.10;;;4.20;99.90;;;;;;4911067;29;20474;-72
2023/01/21 14:18:47;;;;;;;31.23;16.93;;;4.10;99.90;;;;;;4895821;29;20447;-73
2023/01/21 14:21:37;;;;;;;30.50;16.90;;;4.20;99.90;;;;;;4914224;29;20472;-72
2023/01/21 14:24:13;;;;;;;26.30;15.20;;;4.10;99.90;;;;;;4913198;29;20773;-72
2023/01/21 14:27:01;;;;;;;28.73;17.33;;;4.00;99.90;;;;;;4911072;29;20481;-73
2023/01/21 14:30:05;;;;;;;34.17;16.37;;;4.10;99.90;;;;;;4907296;29;20503;-73
2023/01/21 14:32:44;;;;;;;24.87;15.60;;;4.10;99.90;;;;;;4891028;29;20493;-73
2023/01/21 14:35:42;;;;;;;30.17;16.57;;;4.20;99.90;;;;;;4896104;29;20443;-72
2023/01/21 14:38:22;;;;;;;31.53;16.10;;;4.10;99.90;;;;;;4865856;29;20467;-73
2023/01/21 14:41:01;;;;;;;34.37;17.83;;;4.20;99.90;;;;;;4897066;29;21160;-72
2023/01/21 14:43:29;;;;;;;25.37;14.30;;;4.30;99.90;;;;;;4901404;29;20451;-73
2023/01/21 14:45:57;;;;;;;24.87;14.97;;;4.40;99.90;;;;;;4901422;29;20476;-72
2023/01/21 14:48:32;;;;;;;25.47;14.00;;;4.50;99.90;;;;;;4901209;29;20953;-72
2023/01/21 14:51:07;;;;;;;27.07;15.60;;;4.50;99.90;;;;;;4901217;29;20503;-72
2023/01/21 14:53:48;;;;;;;25.17;14.43;;;4.40;99.90;;;;;;4901453;29;20836;-72
2023/01/21 14:56:17;;;;;;;24.20;13.83;;;4.50;99.90;;;;;;4899201;29;20532;-73
2023/01/21 14:58:48;;;;;;;26.70;14.70;;;4.40;99.90;;;;;;4884511;29;20936;-73
2023/01/21 15:02:02;;;;;;;27.97;15.37;;;4.40;99.90;;;;;;4900901;29;20974;-73
2023/01/21 15:04:31;;;;;;;25.17;14.00;;;4.40;99.90;;;;;;4843355;29;20529;-73
2023/01/21 15:07:00;;;;;;;26.30;13.83;;;4.40;99.90;;;;;;4843068;29;20471;-73
2023/01/21 15:09:30;;;;;;;22.17;13.60;;;4.40;99.90;;;;;;4875260;29;20606;-73
2023/01/21 15:12:00;;;;;;;19.03;11.70;;;4.30;99.90;;;;;;4900819;29;20436;-73
2023/01/21 15:14:29;;;;;;;19.97;12.97;;;4.40;99.90;;;;;;4900794;29;20449;-73
2023/01/21 15:16:54;;;;;;;30.47;13.50;;;4.50;99.90;;;;;;4900911;29;20487;-73
2023/01/21 15:19:29;;;;;;;21.20;14.40;;;4.40;99.90;;;;;;4900669;29;20480;-73
2023/01/21 15:22:16;;;;;;;26.80;13.87;;;4.40;99.90;;;;;;4898200;29;20190;-73
2023/01/21 15:25:01;;;;;;;24.67;12.73;;;4.40;99.90;;;;;;4899080;29;20437;-73
2023/01/21 15:27:27;;;;;;;19.80;12.70;;;4.40;99.90;;;;;;4900284;29;20547;-73
2023/01/21 15:30:01;;;;;;;17.60;11.50;;;4.50;99.90;;;;;;4900559;29;20518;-73
2023/01/21 15:32:48;;;;;;;23.40;13.33;;;4.40;99.90;;;;;;4906420;29;20246;-73
2023/01/21 15:35:30;;;;;;;19.23;11.00;;;4.50;99.90;;;;;;4899024;29;20978;-73
2023/01/21 15:38:11;;;;;;;23.00;11.80;;;4.40;99.90;;;;;;4915419;29;20491;-73
2023/01/21 15:40:47;;;;;;;22.47;13.00;;;4.40;99.90;;;;;;4917228;29;20486;-73
2023/01/21 15:43:25;;;;;;;23.60;11.73;;;4.50;99.90;;;;;;4918745;29;20444;-72
2023/01/21 15:46:25;;;;;;;22.40;11.43;;;4.50;99.90;;;;;;4914227;29;20478;-72
2023/01/21 15:49:18;;;;;;;15.63;10.00;;;4.40;99.90;;;;;;4915595;29;20999;-72
2023/01/21 15:51:53;;;;;;;23.67;11.47;;;4.40;99.90;;;;;;4913046;29;20956;-73
2023/01/21 15:54:29;;;;;;;16.90;10.17;;;4.40;99.90;;;;;;4909853;29;20441;-73
2023/01/21 15:57:20;;;;;;;19.07;10.40;;;4.40;99.90;;;;;;4909974;29;20547;-73
2023/01/21 15:59:51;;;;;;;20.10;10.80;;;4.50;99.90;;;;;;4907927;29;20440;-73
2023/01/21 16:02:50;;;;;;;18.30;10.50;;;4.50;99.90;;;;;;4906037;29;20435;-73
2023/01/21 16:05:29;;;;;;;13.93;9.00;;;4.50;99.90;;;;;;4903698;29;20478;-73
2023/01/21 16:08:11;;;;;;;19.10;9.77;;;4.50;99.90;;;;;;4901437;29;20440;-72
2023/01/21 16:11:05;;;;;;;16.40;8.70;;;4.40;99.90;;;;;;4899779;29;20981;-72
2023/01/21 16:13:38;;;;;;;15.45;9.90;;;4.50;99.90;;;;;;4902758;29;20567;-73
2023/01/21 16:16:15;;;;;;;15.20;9.87;;;4.40;99.90;;;;;;4914977;29;20192;-73